Terminal Aerodrome Forecast
Issued by NWS Grand Forks, ND

Home | Current Version | Previous Version | Text Only | Print | Product List | Glossary On
Versions: 1 2 3 4 5 6 7 8 9 10 11 12 13 14 15 16 17 18 19 20 21 22 23
000
FTUS43 KFGF 201100
TAFGFK
TAF
KGFK 201120Z 2012/2112 VRB04KT P6SM SKC
      TEMPO 2014/2018 SCT015
     FM202200 04008KT P6SM SCT250
     FM210600 15008KT P6SM SCT200=

USA.gov is the U.S. government's official web portal to all federal, state and local government web resources and services.